Buena Ventura — 3EEN — position and weather

sailwx.info

Track history (hours):
 
Tides and Currents Weather Stations Pressure Air Temp Water Temp Dewpoint Dewpoint Depression Visibility Wind Speed Wind Dir Waves Ship Positions

Buena Ventura

Last reported at 2018-Apr-20 22:42 UTC. Time now 2018-Apr-21 02:17 UTC.
Position N 46°59' W 125°21'.

Length 209 m; draft 12.8 m.

Type: Cargo ship. MMSI: 357777000.

Date/timePositionNaut miles runAvg speedWind from/ knotsBaromVisibWave heightAir tempDewpointWater temp
2018-Apr-20 22:42N 46°59' W 125°21'212.1
2018-Apr-20 22:30N 46°57' W 125°21'612.4
2018-Apr-20 22:00N 46°51' W 125°21'612.7
2018-Apr-20 21:30N 46°44' W 125°21'612.7
2018-Apr-20 21:00N 46°38' W 125°20'712.7
2018-Apr-20 20:29N 46°32' W 125°20'612.9
2018-Apr-20 20:00N 46°25' W 125°20'612.8
2018-Apr-20 19:30N 46°19' W 125°20'712.9
2018-Apr-20 18:58N 46°12' W 125°20'612.9
2018-Apr-20 18:30N 46°06' W 125°20'713.1
2018-Apr-20 18:00N 45°60' W 125°20'813.1
2018-Apr-20 17:22N 45°51' W 125°20'513.3
2018-Apr-20 17:00N 45°46' W 125°20'713.2
2018-Apr-20 16:30N 45°40' W 125°20'713.2
2018-Apr-20 16:00N 45°33' W 125°19'612.8
2018-Apr-20 15:30N 45°27' W 125°19'712.7
2018-Apr-20 14:58N 45°20' W 125°19'612.2
2018-Apr-20 14:30N 45°14' W 125°19'612.5
2018-Apr-20 14:00N 45°08' W 125°19'612.5
2018-Apr-20 13:30N 45°02' W 125°18'612.4
2018-Apr-20 13:00N 44°56' W 125°18'612.5
2018-Apr-20 12:30N 44°49' W 125°18'1018.6
2018-Apr-20 11:57N 44°39' W 125°17'2 4.9
2018-Apr-20 11:30N 44°37' W 125°17'612.5
2018-Apr-20 11:00N 44°31' W 125°17'612.4
2018-Apr-20 10:30N 44°24' W 125°17'612.5
2018-Apr-20 10:00N 44°18' W 125°17'612.5
2018-Apr-20 09:30N 44°12' W 125°17'612.4
2018-Apr-20 09:00N 44°06' W 125°17'612.4
2018-Apr-20 08:30N 43°60' W 125°16'612.3
2018-Apr-20 08:00N 43°53' W 125°16'1012.2
2018-Apr-20 07:09N 43°43' W 125°16'212.1
2018-Apr-20 07:00N 43°41' W 125°16'712.1
2018-Apr-20 06:27N 43°35' W 125°15'512.0
2018-Apr-20 06:00N 43°29' W 125°15'612.0
2018-Apr-20 05:30N 43°23' W 125°15'611.7
2018-Apr-20 05:00N 43°17' W 125°15'611.7
2018-Apr-20 04:30N 43°12' W 125°14'1811.7
2018-Apr-20 02:58N 42°53' W 125°14'611.7
2018-Apr-20 02:29N 42°48' W 125°14'611.6
2018-Apr-20 02:00N 42°42' W 125°14'611.7
2018-Apr-20 01:27N 42°36' W 125°14'511.6
2018-Apr-20 01:00N 42°31' W 125°14'611.7
2018-Apr-20 00:30N 42°25' W 125°14'611.6
2018-Apr-20 00:00N 42°19' W 125°13'611.7
2018-Apr-19 23:30N 42°13' W 125°13'1511.6
2018-Apr-19 22:10N 41°58' W 125°13'311.5
2018-Apr-19 21:54N 41°54' W 125°12'  
2018-Apr-16 08:59N 28°44' W 115°40'  
2018-Apr-12 05:57N 31°30' W 120°31'512.3
2018-Apr-12 05:30N 31°33' W 120°36'812.3
2018-Apr-12 04:52N 31°37' W 120°44'412.4
2018-Apr-12 04:30N 31°40' W 120°48'1612.1
2018-Apr-12 03:12N 31°48' W 121°04'212.0
2018-Apr-12 03:00N 31°50' W 121°06'1512.1
2018-Apr-12 01:45N 31°58' W 121°21'512.0
2018-Apr-12 01:22N 32°00' W 121°26'712.2
2018-Apr-12 00:47N 32°04' W 121°33'412.2
2018-Apr-12 00:29N 32°06' W 121°36'1512.3
2018-Apr-11 23:14N 32°16' W 121°50'312.5
2018-Apr-11 23:00N 32°19' W 121°52'1312.6
2018-Apr-11 21:59N 32°30' W 121°59'3914.5
2018-Apr-11 19:17N 33°05' W 122°21'1514.9
2018-Apr-11 18:18N 33°17' W 122°30'414.7
2018-Apr-11 18:00N 33°21' W 122°32'714.6
2018-Apr-11 17:30N 33°27' W 122°37'814.4
2018-Apr-11 16:59N 33°34' W 122°41'714.5
2018-Apr-11 16:30N 33°40' W 122°45'714.4
2018-Apr-11 16:00N 33°47' W 122°49'714.4
2018-Apr-11 15:30N 33°53' W 122°53'714.4
2018-Apr-11 14:59N 33°59' W 122°57'1514.5
2018-Apr-11 13:57N 34°13' W 123°06'714.5
2018-Apr-11 13:30N 34°18' W 123°10'2714.6
2018-Apr-11 11:40N 34°42' W 123°26'414.8
2018-Apr-11 11:24N 34°45' W 123°28'614.7
2018-Apr-11 11:00N 34°51' W 123°31'814.4
2018-Apr-11 10:25N 34°58' W 123°36'5014.3
2018-Apr-11 06:55N 35°46' W 123°54'11614.7
2018-Apr-10 23:05N 37°38' W 124°27'414.8
2018-Apr-10 22:47N 37°43' W 124°29'  
Track history (hours):
 
Tides and Currents Weather Stations Pressure Air Temp Water Temp Dewpoint Dewpoint Depression Visibility Wind Speed Wind Dir Waves Ship Positions

Buena Ventura

Last reported at 2018-Apr-20 22:42 UTC. Time now 2018-Apr-21 02:17 UTC.
Position N 46°59' W 125°21'.

Length 209 m; draft 12.8 m.

Type: Cargo ship. MMSI: 357777000.

Date/timePositionNaut miles runAvg speedWind from/ knotsBaromVisibWave heightAir tempDewpointWater temp
2018-Apr-20 22:42N 46°59' W 125°21'212.1
2018-Apr-20 22:30N 46°57' W 125°21'612.4
2018-Apr-20 22:00N 46°51' W 125°21'612.7
2018-Apr-20 21:30N 46°44' W 125°21'612.7
2018-Apr-20 21:00N 46°38' W 125°20'712.7
2018-Apr-20 20:29N 46°32' W 125°20'612.9
2018-Apr-20 20:00N 46°25' W 125°20'612.8
2018-Apr-20 19:30N 46°19' W 125°20'712.9
2018-Apr-20 18:58N 46°12' W 125°20'612.9
2018-Apr-20 18:30N 46°06' W 125°20'713.1
2018-Apr-20 18:00N 45°60' W 125°20'813.1
2018-Apr-20 17:22N 45°51' W 125°20'513.3
2018-Apr-20 17:00N 45°46' W 125°20'713.2
2018-Apr-20 16:30N 45°40' W 125°20'713.2
2018-Apr-20 16:00N 45°33' W 125°19'612.8
2018-Apr-20 15:30N 45°27' W 125°19'712.7
2018-Apr-20 14:58N 45°20' W 125°19'612.2
2018-Apr-20 14:30N 45°14' W 125°19'612.5
2018-Apr-20 14:00N 45°08' W 125°19'612.5
2018-Apr-20 13:30N 45°02' W 125°18'612.4
2018-Apr-20 13:00N 44°56' W 125°18'612.5
2018-Apr-20 12:30N 44°49' W 125°18'1018.6
2018-Apr-20 11:57N 44°39' W 125°17'2 4.9
2018-Apr-20 11:30N 44°37' W 125°17'612.5
2018-Apr-20 11:00N 44°31' W 125°17'612.4
2018-Apr-20 10:30N 44°24' W 125°17'612.5
2018-Apr-20 10:00N 44°18' W 125°17'612.5
2018-Apr-20 09:30N 44°12' W 125°17'612.4
2018-Apr-20 09:00N 44°06' W 125°17'612.4
2018-Apr-20 08:30N 43°60' W 125°16'612.3
2018-Apr-20 08:00N 43°53' W 125°16'1012.2
2018-Apr-20 07:09N 43°43' W 125°16'212.1
2018-Apr-20 07:00N 43°41' W 125°16'712.1
2018-Apr-20 06:27N 43°35' W 125°15'512.0
2018-Apr-20 06:00N 43°29' W 125°15'612.0
2018-Apr-20 05:30N 43°23' W 125°15'611.7
2018-Apr-20 05:00N 43°17' W 125°15'611.7
2018-Apr-20 04:30N 43°12' W 125°14'1811.7
2018-Apr-20 02:58N 42°53' W 125°14'611.7
2018-Apr-20 02:29N 42°48' W 125°14'611.6
2018-Apr-20 02:00N 42°42' W 125°14'611.7
2018-Apr-20 01:27N 42°36' W 125°14'511.6
2018-Apr-20 01:00N 42°31' W 125°14'611.7
2018-Apr-20 00:30N 42°25' W 125°14'611.6
2018-Apr-20 00:00N 42°19' W 125°13'611.7
2018-Apr-19 23:30N 42°13' W 125°13'1511.6
2018-Apr-19 22:10N 41°58' W 125°13'311.5
2018-Apr-19 21:54N 41°54' W 125°12'  
2018-Apr-16 08:59N 28°44' W 115°40'  
2018-Apr-12 05:57N 31°30' W 120°31'512.3
2018-Apr-12 05:30N 31°33' W 120°36'812.3
2018-Apr-12 04:52N 31°37' W 120°44'412.4
2018-Apr-12 04:30N 31°40' W 120°48'1612.1
2018-Apr-12 03:12N 31°48' W 121°04'212.0
2018-Apr-12 03:00N 31°50' W 121°06'1512.1
2018-Apr-12 01:45N 31°58' W 121°21'512.0
2018-Apr-12 01:22N 32°00' W 121°26'712.2
2018-Apr-12 00:47N 32°04' W 121°33'412.2
2018-Apr-12 00:29N 32°06' W 121°36'1512.3
2018-Apr-11 23:14N 32°16' W 121°50'312.5
2018-Apr-11 23:00N 32°19' W 121°52'1312.6
2018-Apr-11 21:59N 32°30' W 121°59'3914.5
2018-Apr-11 19:17N 33°05' W 122°21'1514.9
2018-Apr-11 18:18N 33°17' W 122°30'414.7
2018-Apr-11 18:00N 33°21' W 122°32'714.6
2018-Apr-11 17:30N 33°27' W 122°37'814.4
2018-Apr-11 16:59N 33°34' W 122°41'714.5
2018-Apr-11 16:30N 33°40' W 122°45'714.4
2018-Apr-11 16:00N 33°47' W 122°49'714.4
2018-Apr-11 15:30N 33°53' W 122°53'714.4
2018-Apr-11 14:59N 33°59' W 122°57'1514.5
2018-Apr-11 13:57N 34°13' W 123°06'714.5
2018-Apr-11 13:30N 34°18' W 123°10'2714.6
2018-Apr-11 11:40N 34°42' W 123°26'414.8
2018-Apr-11 11:24N 34°45' W 123°28'614.7
2018-Apr-11 11:00N 34°51' W 123°31'814.4
2018-Apr-11 10:25N 34°58' W 123°36'5014.3
2018-Apr-11 06:55N 35°46' W 123°54'11614.7
2018-Apr-10 23:05N 37°38' W 124°27'414.8
2018-Apr-10 22:47N 37°43' W 124°29'  

Dump ship's entire track history